Time;durP1;ratioP1;P1;durP2;ratioP2;P2;SDS_P1;SDS_P2;PMS_P1;PMS_P2;Temp;Humidity;BMP_temperature;BMP_pressure;BME280_temperature;BME280_humidity;BME280_pressure;Samples;Min_cycle;Max_cycle;Signal;HPM_P1;HPM_P2
2021/04/22 00:01:26;;;;;;;21.85;3.80;;;5.30;98.80;;;;;;3589182;39;20099;-58
2021/04/22 00:03:51;;;;;;;11.80;2.78;;;5.30;98.90;;;;;;3589330;39;20478;-58
2021/04/22 00:06:17;;;;;;;27.20;3.60;;;5.20;99.30;;;;;;3589654;39;20039;-58
2021/04/22 00:08:43;;;;;;;13.70;3.10;;;5.20;99.30;;;;;;3589286;39;20043;-58
2021/04/22 00:11:08;;;;;;;15.73;4.10;;;5.20;99.40;;;;;;3589757;40;20044;-58
2021/04/22 00:13:34;;;;;;;19.83;3.97;;;5.20;99.60;;;;;;3589361;39;20040;-58
2021/04/22 00:16:01;;;;;;;16.95;3.17;;;5.10;99.80;;;;;;3588668;39;20040;-58
2021/04/22 00:18:27;;;;;;;30.10;3.42;;;5.10;99.90;;;;;;3588739;39;20029;-59
2021/04/22 00:20:53;;;;;;;16.27;3.25;;;5.00;99.90;;;;;;3589008;39;20117;-58
2021/04/22 00:23:19;;;;;;;20.30;4.10;;;5.00;99.90;;;;;;3588867;40;20047;-60
2021/04/22 00:25:45;;;;;;;19.55;2.83;;;5.00;99.90;;;;;;3589130;39;20725;-60
2021/04/22 00:28:13;;;;;;;22.88;3.35;;;5.10;99.90;;;;;;3589784;39;20417;-60
2021/04/22 00:30:39;;;;;;;26.27;3.78;;;5.20;99.90;;;;;;3588414;39;20043;-60
2021/04/22 00:33:08;;;;;;;17.75;2.78;;;5.30;99.90;;;;;;3589299;39;20037;-60
2021/04/22 00:35:34;;;;;;;14.00;2.83;;;5.30;99.90;;;;;;3587949;40;20051;-60
2021/04/22 00:38:00;;;;;;;39.88;5.75;;;5.60;99.90;;;;;;3589033;39;20062;-60
2021/04/22 00:40:27;;;;;;;16.08;3.50;;;5.50;99.90;;;;;;3588655;39;20886;-60
2021/04/22 00:42:53;;;;;;;23.02;4.55;;;5.60;99.90;;;;;;3589251;40;20096;-60
2021/04/22 00:45:20;;;;;;;14.65;2.97;;;5.60;99.90;;;;;;3587934;40;20035;-60
2021/04/22 00:47:46;;;;;;;22.80;3.30;;;5.60;99.90;;;;;;3587542;40;20039;-60
2021/04/22 00:50:22;;;;;;;18.30;3.92;;;5.70;99.90;;;;;;3588816;39;20032;-60
2021/04/22 00:52:51;;;;;;;20.98;3.28;;;5.70;99.90;;;;;;3587328;40;20051;-60
2021/04/22 00:55:17;;;;;;;22.75;3.85;;;5.70;99.90;;;;;;3588673;39;20035;-60
2021/04/22 00:57:43;;;;;;;19.25;4.45;;;5.70;99.90;;;;;;3588658;39;20028;-60
2021/04/22 01:00:10;;;;;;;18.05;3.42;;;5.70;99.90;;;;;;3587652;39;20040;-60
2021/04/22 01:02:37;;;;;;;17.23;3.45;;;5.70;99.90;;;;;;3588096;39;20040;-60
2021/04/22 01:05:12;;;;;;;24.83;3.58;;;5.80;99.90;;;;;;3588257;40;20060;-60
2021/04/22 01:07:41;;;;;;;18.73;4.78;;;5.80;99.90;;;;;;3588603;39;20551;-59
2021/04/22 01:10:10;;;;;;;25.10;5.65;;;5.90;99.90;;;;;;3586925;40;20044;-60
2021/04/22 01:12:35;;;;;;;19.75;3.83;;;5.90;99.90;;;;;;3588708;39;20080;-60
2021/04/22 01:15:07;;;;;;;20.60;3.92;;;5.90;99.90;;;;;;3587988;39;20058;-60
2021/04/22 01:17:37;;;;;;;19.60;3.95;;;5.90;99.90;;;;;;3587752;40;20047;-59
2021/04/22 01:20:07;;;;;;;19.05;3.72;;;5.90;99.90;;;;;;3588404;39;20475;-60
2021/04/22 01:22:33;;;;;;;16.35;3.38;;;5.90;99.90;;;;;;3588618;39;20036;-60
2021/04/22 01:24:59;;;;;;;15.23;4.53;;;5.90;99.90;;;;;;3586716;39;20084;-60
2021/04/22 01:27:25;;;;;;;21.63;3.85;;;6.00;99.90;;;;;;3587470;39;20341;-60
2021/04/22 01:29:50;;;;;;;22.60;3.42;;;6.00;99.90;;;;;;3588264;40;20793;-60
2021/04/22 01:32:16;;;;;;;23.15;4.50;;;6.00;99.80;;;;;;3588497;39;20452;-60
2021/04/22 01:34:42;;;;;;;20.58;3.88;;;6.00;99.80;;;;;;3588653;40;20103;-60
2021/04/22 01:37:08;;;;;;;21.30;4.68;;;6.00;99.50;;;;;;3590472;39;20048;-59
2021/04/22 01:39:34;;;;;;;20.50;3.67;;;6.00;99.60;;;;;;3590301;39;20048;-60
2021/04/22 01:41:59;;;;;;;25.85;3.53;;;5.90;99.60;;;;;;3589884;40;20040;-60
2021/04/22 01:44:25;;;;;;;14.52;3.63;;;5.90;99.90;;;;;;3588430;39;20184;-60
2021/04/22 01:46:51;;;;;;;18.13;3.30;;;6.00;99.80;;;;;;3588356;39;20039;-61
2021/04/22 01:49:16;;;;;;;26.00;4.00;;;5.90;99.90;;;;;;3588620;39;20075;-60
2021/04/22 01:51:42;;;;;;;21.20;4.15;;;5.90;99.90;;;;;;3586701;40;20048;-60
2021/04/22 01:54:08;;;;;;;23.13;4.13;;;5.90;99.90;;;;;;3588200;39;20048;-60
2021/04/22 01:56:34;;;;;;;21.33;3.85;;;5.90;99.90;;;;;;3588408;39;20039;-60
2021/04/22 01:58:59;;;;;;;28.48;4.25;;;5.90;99.90;;;;;;3587807;39;20163;-60
2021/04/22 02:01:25;;;;;;;17.45;4.25;;;5.90;99.90;;;;;;3588206;39;20044;-60
2021/04/22 02:03:50;;;;;;;21.88;3.75;;;5.90;99.90;;;;;;3588325;40;20028;-60
2021/04/22 02:06:16;;;;;;;23.33;3.67;;;6.00;99.90;;;;;;3588427;40;20031;-60
2021/04/22 02:08:42;;;;;;;17.10;3.40;;;6.00;99.90;;;;;;3588499;39;20067;-60
2021/04/22 02:11:08;;;;;;;21.50;3.60;;;6.00;99.90;;;;;;3588327;39;20129;-60
2021/04/22 02:13:34;;;;;;;22.27;3.97;;;6.00;99.90;;;;;;3588003;39;20056;-60
2021/04/22 02:16:00;;;;;;;31.13;4.03;;;6.00;99.90;;;;;;3588284;39;20024;-60
2021/04/22 02:18:26;;;;;;;20.17;3.97;;;6.00;99.90;;;;;;3587867;39;20028;-60
2021/04/22 02:20:52;;;;;;;17.35;3.20;;;6.00;99.90;;;;;;3585052;40;20036;-60
2021/04/22 02:23:21;;;;;;;19.20;3.38;;;6.00;99.90;;;;;;3588084;39;20040;-60
2021/04/22 02:25:47;;;;;;;22.80;3.70;;;6.00;99.90;;;;;;3588076;39;20705;-60
2021/04/22 02:28:14;;;;;;;21.83;3.67;;;6.00;99.90;;;;;;3586960;40;20046;-60
2021/04/22 02:30:41;;;;;;;28.13;3.85;;;6.00;99.90;;;;;;3587261;39;20612;-60
2021/04/22 02:33:10;;;;;;;19.05;3.58;;;6.00;99.90;;;;;;3588214;39;20335;-60
2021/04/22 02:35:39;;;;;;;17.88;3.00;;;5.90;99.90;;;;;;3587446;39;20125;-60
2021/04/22 02:38:07;;;;;;;30.50;4.50;;;5.90;99.90;;;;;;3586338;40;20113;-60
2021/04/22 02:40:35;;;;;;;16.52;3.40;;;5.90;99.90;;;;;;3587209;39;20410;-60
2021/04/22 02:43:04;;;;;;;17.23;3.08;;;5.90;99.90;;;;;;3587495;40;20466;-60
2021/04/22 02:45:33;;;;;;;22.48;4.95;;;5.90;99.90;;;;;;3587426;39;20032;-60
2021/04/22 02:47:59;;;;;;;20.92;3.85;;;5.80;99.90;;;;;;3586778;40;20035;-60
2021/04/22 02:50:29;;;;;;;19.38;3.55;;;5.80;99.90;;;;;;3585701;40;20049;-60
2021/04/22 02:52:55;;;;;;;28.05;3.97;;;5.80;99.90;;;;;;3587699;39;20044;-60
2021/04/22 02:55:21;;;;;;;23.83;4.75;;;5.80;99.90;;;;;;3587407;39;20079;-60
2021/04/22 02:57:47;;;;;;;20.75;4.05;;;5.80;99.90;;;;;;3587649;39;20144;-61
2021/04/22 03:00:17;;;;;;;17.55;3.78;;;5.70;99.90;;;;;;3587041;39;20040;-60
2021/04/22 03:02:43;;;;;;;21.40;3.80;;;5.80;99.90;;;;;;3587406;39;20036;-60
2021/04/22 03:05:10;;;;;;;24.55;4.03;;;5.80;99.90;;;;;;3586863;39;20040;-60
2021/04/22 03:07:36;;;;;;;21.15;4.50;;;5.70;99.90;;;;;;3587034;39;20621;-60
2021/04/22 03:10:05;;;;;;;32.47;4.43;;;5.80;99.90;;;;;;3586603;39;20040;-60
2021/04/22 03:12:31;;;;;;;20.55;3.63;;;5.70;99.90;;;;;;3586974;40;20052;-60
2021/04/22 03:14:57;;;;;;;23.48;4.75;;;5.80;99.90;;;;;;3587118;39;20036;-60
2021/04/22 03:17:23;;;;;;;27.55;5.80;;;5.70;99.90;;;;;;3587429;40;20051;-60
2021/04/22 03:19:48;;;;;;;23.88;4.22;;;5.70;99.90;;;;;;3585956;39;20047;-60
2021/04/22 03:22:14;;;;;;;25.08;3.70;;;5.70;99.90;;;;;;3587481;40;20059;-60
2021/04/22 03:24:40;;;;;;;23.13;4.55;;;5.70;99.90;;;;;;3586898;39;20107;-60
2021/04/22 03:27:06;;;;;;;22.10;4.32;;;5.60;99.90;;;;;;3586985;39;20043;-60
2021/04/22 03:29:32;;;;;;;29.38;3.58;;;5.60;99.90;;;;;;3586846;40;20036;-60
2021/04/22 03:31:58;;;;;;;17.70;3.70;;;5.70;99.90;;;;;;3586050;39;20719;-60
2021/04/22 03:34:24;;;;;;;21.65;3.88;;;5.70;99.90;;;;;;3586769;40;20099;-60
2021/04/22 03:36:50;;;;;;;35.60;4.18;;;5.80;99.90;;;;;;3586593;40;20032;-60
2021/04/22 03:39:16;;;;;;;17.33;3.88;;;5.80;99.90;;;;;;3586504;39;20060;-60
2021/04/22 03:41:41;;;;;;;28.15;3.95;;;5.80;99.90;;;;;;3583440;40;20052;-60
2021/04/22 03:44:07;;;;;;;20.13;3.92;;;5.80;99.90;;;;;;3586285;39;20136;-60
2021/04/22 03:46:33;;;;;;;18.23;3.63;;;5.80;99.90;;;;;;3588815;39;20055;-61
2021/04/22 03:48:59;;;;;;;26.77;3.60;;;5.70;99.90;;;;;;3588175;40;20518;-60
2021/04/22 03:51:25;;;;;;;21.80;3.65;;;5.70;99.90;;;;;;3588985;39;20056;-60
2021/04/22 03:53:51;;;;;;;27.80;4.13;;;5.70;99.90;;;;;;3585298;39;20420;-60
2021/04/22 03:56:17;;;;;;;20.45;3.88;;;5.70;99.90;;;;;;3586980;39;20103;-60
2021/04/22 03:58:42;;;;;;;21.85;4.72;;;5.70;99.90;;;;;;3586349;39;20056;-60
2021/04/22 04:01:08;;;;;;;18.98;3.70;;;5.70;99.90;;;;;;3587981;40;20298;-60
2021/04/22 04:03:34;;;;;;;21.80;3.35;;;5.70;99.90;;;;;;3587985;39;20073;-61
2021/04/22 04:05:59;;;;;;;26.40;3.95;;;5.70;99.90;;;;;;3586196;40;20039;-60
2021/04/22 04:08:25;;;;;;;25.13;5.10;;;5.70;99.90;;;;;;3588281;39;20016;-60
2021/04/22 04:10:51;;;;;;;19.65;3.90;;;5.70;99.90;;;;;;3587781;39;20032;-60
2021/04/22 04:13:16;;;;;;;22.38;4.28;;;5.70;99.90;;;;;;3584509;40;20742;-60
2021/04/22 04:15:45;;;;;;;16.73;3.47;;;5.70;99.90;;;;;;3588119;39;20044;-60
2021/04/22 04:18:13;;;;;;;21.50;3.80;;;5.70;99.90;;;;;;3589258;39;20502;-60
2021/04/22 04:20:39;;;;;;;25.73;4.72;;;5.70;99.90;;;;;;3587915;40;20032;-60
2021/04/22 04:23:05;;;;;;;16.17;4.03;;;5.70;99.90;;;;;;3589527;39;20044;-60
2021/04/22 04:25:31;;;;;;;30.77;4.20;;;5.80;99.90;;;;;;3589049;40;20332;-60
2021/04/22 04:27:56;;;;;;;20.02;4.20;;;5.70;99.90;;;;;;3589397;39;20036;-60
2021/04/22 04:30:22;;;;;;;17.83;3.42;;;5.80;99.90;;;;;;3589104;39;20769;-60
2021/04/22 04:32:48;;;;;;;13.48;3.60;;;5.70;99.90;;;;;;3589279;40;20027;-60
2021/04/22 04:35:15;;;;;;;21.15;3.50;;;5.70;99.90;;;;;;3588885;39;20145;-60
2021/04/22 04:37:41;;;;;;;20.00;4.63;;;5.70;99.90;;;;;;3588138;40;20043;-60
2021/04/22 04:40:09;;;;;;;26.27;4.32;;;5.70;99.90;;;;;;3587600;40;20036;-60
2021/04/22 04:42:36;;;;;;;25.52;5.40;;;5.80;99.90;;;;;;3588862;39;20040;-60
2021/04/22 04:45:04;;;;;;;17.50;3.80;;;5.80;99.90;;;;;;3588954;39;20043;-60
2021/04/22 04:47:30;;;;;;;26.00;3.75;;;5.70;99.90;;;;;;3588990;39;20036;-60
2021/04/22 04:49:56;;;;;;;27.23;4.40;;;5.70;99.90;;;;;;3587442;40;20058;-60
2021/04/22 04:52:22;;;;;;;21.10;4.25;;;5.70;99.90;;;;;;3589011;39;20031;-60
2021/04/22 04:54:47;;;;;;;17.67;3.88;;;5.70;99.90;;;;;;3584489;40;20051;-60
2021/04/22 04:57:13;;;;;;;28.70;4.32;;;5.60;99.90;;;;;;3588778;39;20039;-60
2021/04/22 04:59:38;;;;;;;23.02;3.92;;;5.60;99.90;;;;;;3588740;39;20040;-60
2021/04/22 05:02:04;;;;;;;25.08;4.15;;;5.70;99.90;;;;;;3589488;39;20125;-60
2021/04/22 05:04:30;;;;;;;21.83;5.57;;;5.70;99.90;;;;;;3588475;40;20044;-60
2021/04/22 05:06:56;;;;;;;19.38;3.28;;;5.70;99.90;;;;;;3588865;39;20124;-60
2021/04/22 05:09:22;;;;;;;21.00;3.58;;;5.70;99.90;;;;;;3586737;40;20037;-60
2021/04/22 05:11:47;;;;;;;28.52;3.30;;;5.70;99.90;;;;;;3588295;39;20032;-60
2021/04/22 05:14:13;;;;;;;20.08;3.72;;;5.80;99.90;;;;;;3585701;40;20077;-60
2021/04/22 05:16:39;;;;;;;18.92;3.38;;;5.80;99.90;;;;;;3586456;40;20076;-60
2021/04/22 05:19:04;;;;;;;33.10;3.50;;;5.80;99.90;;;;;;3588540;39;20039;-61
2021/04/22 05:21:30;;;;;;;23.38;4.03;;;5.80;99.90;;;;;;3586015;39;20043;-60
2021/04/22 05:23:56;;;;;;;21.08;3.40;;;5.80;99.90;;;;;;3589659;39;20093;-60
2021/04/22 05:26:23;;;;;;;14.27;3.20;;;5.80;99.90;;;;;;3589063;39;20340;-60
2021/04/22 05:28:48;;;;;;;24.35;4.55;;;5.80;99.90;;;;;;3588787;39;20020;-60
2021/04/22 05:31:14;;;;;;;17.92;3.40;;;5.80;99.90;;;;;;3588707;39;20047;-60
2021/04/22 05:33:40;;;;;;;23.58;3.47;;;5.80;99.90;;;;;;3588456;39;20688;-60
2021/04/22 05:36:06;;;;;;;27.08;5.43;;;5.70;99.90;;;;;;3587074;40;20043;-60
2021/04/22 05:38:32;;;;;;;17.77;3.10;;;5.70;99.90;;;;;;3582627;40;20832;-60
2021/04/22 05:40:58;;;;;;;21.83;3.63;;;5.70;99.90;;;;;;3588336;39;20055;-60
2021/04/22 05:43:23;;;;;;;22.58;3.72;;;5.70;99.90;;;;;;3588818;39;20761;-60
2021/04/22 05:45:49;;;;;;;17.55;3.40;;;5.80;99.90;;;;;;3588629;39;20091;-60
2021/04/22 05:48:15;;;;;;;23.88;5.05;;;5.90;99.90;;;;;;3588106;39;20087;-60
2021/04/22 05:50:40;;;;;;;12.77;3.72;;;5.90;99.90;;;;;;3587036;40;20126;-60
2021/04/22 05:53:06;;;;;;;20.38;3.03;;;6.00;99.90;;;;;;3588689;39;20040;-60
2021/04/22 05:55:32;;;;;;;24.25;3.65;;;6.00;99.90;;;;;;3587961;39;20385;-60
2021/04/22 05:57:59;;;;;;;29.50;5.65;;;6.00;99.90;;;;;;3588489;39;20067;-61
2021/04/22 06:00:27;;;;;;;19.88;3.17;;;6.10;99.90;;;;;;3587970;40;20136;-60
2021/04/22 06:02:53;;;;;;;27.90;6.93;;;6.20;99.90;;;;;;3589321;39;20024;-60
2021/04/22 06:05:19;;;;;;;25.65;5.35;;;6.10;99.90;;;;;;3589295;39;20028;-59
2021/04/22 06:07:46;;;;;;;32.80;3.78;;;6.20;99.90;;;;;;3589613;39;20347;-60
2021/04/22 06:10:12;;;;;;;18.73;3.25;;;6.20;99.90;;;;;;3588588;39;20379;-60
2021/04/22 06:12:38;;;;;;;24.00;3.15;;;6.30;99.90;;;;;;3588592;39;20117;-60
2021/04/22 06:15:06;;;;;;;21.40;3.40;;;6.40;99.90;;;;;;3588042;39;20052;-60
2021/04/22 06:17:32;;;;;;;15.25;3.58;;;6.50;99.90;;;;;;3587954;40;20043;-60
2021/04/22 06:19:57;;;;;;;27.52;3.33;;;6.50;99.90;;;;;;3587600;39;20140;-60
2021/04/22 06:22:23;;;;;;;23.23;3.38;;;6.50;99.90;;;;;;3587143;39;20121;-60
2021/04/22 06:24:49;;;;;;;17.30;3.72;;;6.60;99.90;;;;;;3587543;39;20433;-60
2021/04/22 06:27:14;;;;;;;24.40;4.78;;;6.70;99.90;;;;;;3587899;40;20049;-60
2021/04/22 06:29:40;;;;;;;17.83;3.50;;;6.70;99.90;;;;;;3587993;39;20051;-60
2021/04/22 06:32:08;;;;;;;17.08;3.35;;;6.70;99.90;;;;;;3587773;39;20393;-63
2021/04/22 06:34:34;;;;;;;25.15;3.95;;;6.70;99.90;;;;;;3587884;39;20036;-63
2021/04/22 06:37:00;;;;;;;23.17;3.42;;;6.80;99.90;;;;;;3587923;39;20322;-63
2021/04/22 06:39:29;;;;;;;18.55;3.10;;;6.90;99.90;;;;;;3587726;39;20036;-64
2021/04/22 06:41:56;;;;;;;20.48;3.10;;;7.00;99.90;;;;;;3587362;39;20126;-62
2021/04/22 06:44:22;;;;;;;17.23;3.50;;;7.10;99.90;;;;;;3587309;39;20047;-61
2021/04/22 06:46:47;;;;;;;16.35;3.50;;;7.20;99.90;;;;;;3587871;39;20036;-61
2021/04/22 06:49:13;;;;;;;21.40;3.25;;;7.20;99.90;;;;;;3587432;39;20040;-61
2021/04/22 06:51:39;;;;;;;24.25;5.07;;;7.30;99.90;;;;;;3587655;39;20294;-61
2021/04/22 06:54:05;;;;;;;20.15;2.80;;;7.40;99.90;;;;;;3587816;39;20144;-61
2021/04/22 06:56:31;;;;;;;23.02;3.60;;;7.40;99.80;;;;;;3588254;39;20036;-61
2021/04/22 06:59:01;;;;;;;18.55;3.65;;;7.50;99.90;;;;;;3588413;39;20416;-61
2021/04/22 07:01:27;;;;;;;15.60;2.80;;;7.60;99.80;;;;;;3586267;39;20069;-61
2021/04/22 07:03:53;;;;;;;24.17;4.97;;;7.60;99.50;;;;;;3588175;40;20622;-61
2021/04/22 07:06:19;;;;;;;28.17;3.58;;;7.70;99.40;;;;;;3586201;40;20044;-61
2021/04/22 07:08:45;;;;;;;29.30;3.97;;;7.60;99.10;;;;;;3586682;40;20105;-61
2021/04/22 07:11:10;;;;;;;20.67;2.95;;;7.50;99.30;;;;;;3587000;39;20056;-61
2021/04/22 07:13:36;;;;;;;20.63;3.40;;;7.70;99.30;;;;;;3576601;40;20036;-61
2021/04/22 07:16:02;;;;;;;20.17;3.70;;;7.90;99.40;;;;;;3587332;39;20791;-61
2021/04/22 07:18:28;;;;;;;19.27;3.10;;;7.90;98.90;;;;;;3586702;39;20063;-61
2021/04/22 07:20:54;;;;;;;20.05;3.53;;;8.00;99.00;;;;;;3584902;40;20054;-61
2021/04/22 07:23:19;;;;;;;20.45;4.80;;;8.10;98.90;;;;;;3586868;39;20036;-61
2021/04/22 07:25:45;;;;;;;19.15;3.20;;;8.10;98.90;;;;;;3586086;39;20074;-61
2021/04/22 07:28:12;;;;;;;30.83;10.32;;;8.10;98.60;;;;;;3587456;39;20044;-61
2021/04/22 07:30:39;;;;;;;20.58;3.97;;;8.20;98.70;;;;;;3581540;40;20056;-61
2021/04/22 07:33:06;;;;;;;24.75;4.05;;;8.20;98.50;;;;;;3585569;39;20044;-68
2021/04/22 07:35:32;;;;;;;22.98;3.38;;;8.20;98.20;;;;;;3588603;40;20036;-68
2021/04/22 07:37:58;;;;;;;18.00;3.08;;;8.10;98.60;;;;;;3588323;39;20036;-68
2021/04/22 07:40:26;;;;;;;21.17;6.60;;;8.20;98.10;;;;;;3587233;40;20039;-68
2021/04/22 07:42:52;;;;;;;17.83;3.53;;;8.20;98.60;;;;;;3588565;39;20071;-61
2021/04/22 07:45:27;;;;;;;14.25;3.00;;;8.30;99.00;;;;;;3588604;39;20043;-61
2021/04/22 07:47:54;;;;;;;20.58;3.90;;;8.50;98.20;;;;;;3582817;40;20341;-60
2021/04/22 07:50:20;;;;;;;15.73;3.55;;;8.50;98.20;;;;;;3588685;39;20117;-60
2021/04/22 07:52:47;;;;;;;25.40;3.72;;;8.50;98.60;;;;;;3588408;39;20116;-60
2021/04/22 07:55:20;;;;;;;26.27;3.38;;;8.40;98.40;;;;;;3588138;40;20106;-60
2021/04/22 07:57:46;;;;;;;21.45;3.63;;;8.50;98.50;;;;;;3588228;39;20082;-60
2021/04/22 08:00:15;;;;;;;25.67;7.20;;;8.60;98.10;;;;;;3589083;39;20706;-60
2021/04/22 08:02:42;;;;;;;21.23;3.42;;;8.60;97.80;;;;;;3588494;39;20112;-61
2021/04/22 08:05:10;;;;;;;17.52;3.50;;;8.70;97.50;;;;;;3588619;39;20044;-60
2021/04/22 08:07:37;;;;;;;16.90;4.22;;;8.70;97.70;;;;;;3587833;39;20719;-62
2021/04/22 08:10:09;;;;;;;18.90;5.45;;;8.80;97.70;;;;;;3585191;40;20070;-60
2021/04/22 08:12:35;;;;;;;18.65;2.95;;;9.00;97.60;;;;;;3588197;40;20419;-61
2021/04/22 08:15:02;;;;;;;19.50;3.33;;;9.20;97.60;;;;;;3590511;39;20043;-60
2021/04/22 08:17:28;;;;;;;15.57;3.78;;;9.20;97.40;;;;;;3589861;40;20049;-61
2021/04/22 08:19:54;;;;;;;22.13;3.63;;;9.20;97.20;;;;;;3589740;39;20626;-61
2021/04/22 08:22:20;;;;;;;17.05;4.05;;;9.40;96.80;;;;;;3588387;39;20095;-61
2021/04/22 08:24:45;;;;;;;19.45;3.75;;;9.60;96.20;;;;;;3588369;39;20040;-60
2021/04/22 08:27:11;;;;;;;15.02;3.30;;;9.60;95.60;;;;;;3588584;40;20052;-60
2021/04/22 08:29:37;;;;;;;12.90;3.08;;;9.70;95.50;;;;;;3588723;39;20051;-60
2021/04/22 08:32:03;;;;;;;18.13;5.55;;;9.50;95.30;;;;;;3587621;39;20044;-60
2021/04/22 08:34:29;;;;;;;18.70;5.72;;;9.40;96.00;;;;;;3585299;40;20044;-60
2021/04/22 08:36:54;;;;;;;15.15;3.40;;;9.60;95.40;;;;;;3588667;39;20035;-61
2021/04/22 08:39:20;;;;;;;12.75;2.78;;;9.70;94.90;;;;;;3588476;39;20048;-61
2021/04/22 08:41:47;;;;;;;16.10;3.17;;;9.80;94.20;;;;;;3588406;39;20025;-61
2021/04/22 08:44:13;;;;;;;15.88;2.83;;;9.80;93.80;;;;;;3582240;40;20039;-60
2021/04/22 08:46:39;;;;;;;15.45;3.53;;;10.00;93.90;;;;;;3588418;39;20075;-61
2021/04/22 08:49:05;;;;;;;17.60;3.03;;;10.30;93.40;;;;;;3588861;39;20040;-61
2021/04/22 08:51:32;;;;;;;17.45;3.38;;;10.50;92.50;;;;;;3589057;40;20659;-61
2021/04/22 08:53:59;;;;;;;14.07;3.10;;;10.40;92.50;;;;;;3587630;39;20024;-61
2021/04/22 08:56:25;;;;;;;13.45;2.67;;;10.20;93.90;;;;;;3586060;40;20043;-60
2021/04/22 08:58:51;;;;;;;18.23;2.88;;;10.60;92.70;;;;;;3588771;39;20029;-61
2021/04/22 09:01:19;;;;;;;20.73;3.30;;;11.10;92.10;;;;;;3588119;40;20439;-61
2021/04/22 09:03:47;;;;;;;13.70;3.08;;;11.50;90.60;;;;;;3588744;39;20028;-61
2021/04/22 09:06:14;;;;;;;14.45;2.97;;;11.80;85.00;;;;;;3588745;39;20036;-61
2021/04/22 09:08:49;;;;;;;15.70;5.43;;;11.60;84.90;;;;;;3589003;39;20340;-61
2021/04/22 09:11:24;;;;;;;19.05;2.97;;;11.60;83.70;;;;;;3588450;40;20036;-61
2021/04/22 09:13:51;;;;;;;14.80;2.80;;;12.00;83.60;;;;;;3588127;40;20025;-61
2021/04/22 09:16:20;;;;;;;18.42;3.00;;;12.30;79.70;;;;;;3588815;39;20040;-61
2021/04/22 09:18:49;;;;;;;9.95;2.72;;;12.20;77.60;;;;;;3589037;39;20639;-61
2021/04/22 09:21:25;;;;;;;15.23;3.08;;;11.80;77.90;;;;;;3586220;40;20137;-61
2021/04/22 09:24:01;;;;;;;21.33;3.10;;;11.90;80.30;;;;;;3588262;39;20464;-61
2021/04/22 09:26:45;;;;;;;13.10;2.50;;;11.90;80.20;;;;;;3587933;40;20036;-61
2021/04/22 09:29:14;;;;;;;17.48;3.80;;;11.90;77.70;;;;;;3588585;39;20107;-61
2021/04/22 09:31:41;;;;;;;15.50;2.25;;;11.90;77.50;;;;;;3587992;39;20781;-61
2021/04/22 09:34:12;;;;;;;9.73;2.45;;;12.00;79.30;;;;;;3588506;40;20044;-61
2021/04/22 09:36:50;;;;;;;14.23;2.90;;;12.40;73.40;;;;;;3588994;39;20166;-61
2021/04/22 09:39:22;;;;;;;11.32;2.60;;;12.70;70.30;;;;;;3588517;39;20044;-61
2021/04/22 09:41:50;;;;;;;8.05;2.35;;;12.90;69.40;;;;;;3587588;40;20090;-61
2021/04/22 09:44:18;;;;;;;14.60;1.95;;;12.80;64.80;;;;;;3587846;39;20036;-61
2021/04/22 09:46:47;;;;;;;14.93;2.47;;;13.10;66.00;;;;;;3586875;40;20097;-61
2021/04/22 09:49:20;;;;;;;10.43;2.25;;;12.60;65.90;;;;;;3586502;40;20028;-61
2021/04/22 09:51:48;;;;;;;11.38;2.40;;;12.30;68.40;;;;;;3602026;39;20071;-61
2021/04/22 09:54:20;;;;;;;21.13;2.53;;;12.00;72.10;;;;;;3586087;40;20032;-62
2021/04/22 09:56:46;;;;;;;13.57;2.42;;;11.70;72.10;;;;;;3587037;39;20036;-61
2021/04/22 09:59:20;;;;;;;15.48;2.58;;;11.70;73.90;;;;;;3588221;40;20047;-61
2021/04/22 10:02:00;;;;;;;14.48;1.98;;;11.60;70.10;;;;;;3588661;39;20062;-61
2021/04/22 10:04:36;;;;;;;10.38;2.08;;;11.40;70.30;;;;;;3588198;40;20056;-60
2021/04/22 10:07:03;;;;;;;10.25;2.53;;;12.10;72.00;;;;;;3587333;40;20677;-61
2021/04/22 10:09:38;;;;;;;14.40;2.15;;;12.80;68.80;;;;;;3586045;40;20042;-60
2021/04/22 10:12:07;;;;;;;16.02;2.10;;;13.50;67.00;;;;;;3588339;39;20033;-58
2021/04/22 10:14:35;;;;;;;13.45;2.25;;;14.00;63.70;;;;;;3587618;40;20416;-61
2021/04/22 10:17:25;;;;;;;15.35;1.90;;;13.90;62.70;;;;;;3587881;40;20468;-61
2021/04/22 10:19:58;;;;;;;15.77;2.38;;;13.90;62.80;;;;;;3587679;39;20046;-61
2021/04/22 10:22:29;;;;;;;11.90;2.15;;;13.80;59.90;;;;;;3586389;40;20463;-61
2021/04/22 10:24:57;;;;;;;11.05;1.92;;;14.10;60.40;;;;;;3587875;40;20398;-61
2021/04/22 10:27:27;;;;;;;8.93;1.90;;;14.00;59.70;;;;;;3589880;39;20717;-61
2021/04/22 10:29:56;;;;;;;8.38;2.03;;;13.30;61.30;;;;;;3586520;40;20117;-61
2021/04/22 10:32:22;;;;;;;10.10;3.05;;;12.70;64.80;;;;;;3587630;40;20147;-61
2021/04/22 10:34:50;;;;;;;15.75;2.25;;;12.60;65.00;;;;;;3585565;40;20044;-61
2021/04/22 10:37:19;;;;;;;12.40;2.13;;;12.90;63.40;;;;;;3584870;40;20059;-61
2021/04/22 10:39:46;;;;;;;11.77;2.15;;;12.70;61.50;;;;;;3586906;40;20042;-61
2021/04/22 10:42:12;;;;;;;7.45;2.00;;;12.80;62.70;;;;;;3587715;39;20028;-61
2021/04/22 10:44:38;;;;;;;4.80;1.40;;;13.40;61.00;;;;;;3595709;39;20144;-61
2021/04/22 10:47:05;;;;;;;11.25;3.03;;;14.10;55.90;;;;;;3587817;39;20035;-61
2021/04/22 10:49:31;;;;;;;9.48;2.03;;;14.60;56.30;;;;;;3587554;39;20039;-61
2021/04/22 10:51:57;;;;;;;17.17;3.22;;;14.20;58.50;;;;;;3586774;39;20028;-61
2021/04/22 10:54:24;;;;;;;10.52;2.10;;;13.70;60.20;;;;;;3587680;39;20042;-61
2021/04/22 10:57:05;;;;;;;10.82;2.20;;;13.40;61.20;;;;;;3584775;40;20407;-62
2021/04/22 10:59:32;;;;;;;12.70;2.40;;;13.50;63.40;;;;;;3587835;40;20775;-61
2021/04/22 11:01:58;;;;;;;9.25;1.80;;;14.00;62.50;;;;;;3587749;40;20421;-61
2021/04/22 11:04:24;;;;;;;14.25;2.55;;;14.40;57.00;;;;;;3587524;40;20028;-61
2021/04/22 11:06:50;;;;;;;11.13;2.40;;;14.60;55.40;;;;;;3587233;40;20406;-61
2021/04/22 11:09:17;;;;;;;11.25;2.40;;;14.50;56.80;;;;;;3588109;39;20095;-61
2021/04/22 11:12:00;;;;;;;18.60;3.47;;;14.00;57.00;;;;;;3588630;39;20119;-61
2021/04/22 11:14:45;;;;;;;16.77;2.63;;;13.50;61.00;;;;;;3588728;40;20031;-62
2021/04/22 11:17:11;;;;;;;13.75;2.53;;;12.90;64.10;;;;;;3589060;40;20372;-61
2021/04/22 11:19:42;;;;;;;11.10;2.40;;;12.70;63.90;;;;;;3586442;40;20057;-61
2021/04/22 11:22:15;;;;;;;9.85;1.80;;;13.10;62.60;;;;;;3588730;39;20102;-61
2021/04/22 11:25:05;;;;;;;11.50;2.20;;;13.80;57.00;;;;;;3586335;40;20111;-61
2021/04/22 11:27:34;;;;;;;17.25;2.30;;;14.40;55.70;;;;;;3589018;40;20043;-61
2021/04/22 11:30:03;;;;;;;6.85;1.90;;;14.60;56.90;;;;;;3584078;39;20132;-61
2021/04/22 11:32:42;;;;;;;8.77;2.22;;;14.90;57.40;;;;;;3584917;40;20028;-61
2021/04/22 11:35:17;;;;;;;14.63;3.10;;;15.30;57.50;;;;;;3584719;40;20768;-61
2021/04/22 11:37:48;;;;;;;;;;;15.70;54.50;;;;;;3585802;39;20050;-63
2021/04/22 11:40:24;;;;;;;8.13;2.17;;;15.80;54.00;;;;;;3588731;40;19928;-61
2021/04/22 11:42:52;;;;;;;14.38;2.90;;;15.30;53.60;;;;;;3587175;40;20040;-61
2021/04/22 11:45:27;;;;;;;9.15;2.40;;;14.60;55.70;;;;;;3588672;40;20059;-61
2021/04/22 11:48:06;;;;;;;12.43;2.10;;;14.50;56.10;;;;;;3589554;40;20484;-61
2021/04/22 11:50:44;;;;;;;13.70;2.28;;;14.00;56.40;;;;;;3587849;39;20033;-61
2021/04/22 11:53:10;;;;;;;7.43;1.90;;;13.70;58.60;;;;;;3588788;39;20032;-61
2021/04/22 11:55:48;;;;;;;18.85;3.85;;;13.50;58.90;;;;;;3588301;39;20699;-61
2021/04/22 11:58:17;;;;;;;8.80;2.03;;;13.40;58.30;;;;;;3588865;39;20032;-61
2021/04/22 12:00:48;;;;;;;16.17;2.30;;;13.10;57.10;;;;;;3588693;39;20480;-61
2021/04/22 12:03:22;;;;;;;13.90;2.40;;;13.00;59.10;;;;;;3588251;40;20034;-61
2021/04/22 12:05:50;;;;;;;7.80;2.30;;;12.80;58.60;;;;;;3588457;39;20036;-62
2021/04/22 12:08:16;;;;;;;11.73;2.45;;;12.70;60.30;;;;;;3588717;39;20028;-61
2021/04/22 12:10:49;;;;;;;10.10;2.05;;;12.70;60.40;;;;;;3588860;39;20770;-61
2021/04/22 12:13:18;;;;;;;14.57;4.90;;;12.90;60.10;;;;;;3587950;40;20136;-61
2021/04/22 12:15:46;;;;;;;10.85;2.30;;;13.00;57.80;;;;;;3587946;40;20665;-61
2021/04/22 12:18:27;;;;;;;11.18;3.80;;;12.90;58.50;;;;;;3588441;39;20486;-61
2021/04/22 12:21:09;;;;;;;7.32;2.22;;;12.60;61.10;;;;;;3587053;39;20793;-61
2021/04/22 12:23:47;;;;;;;13.95;2.80;;;12.40;60.90;;;;;;3589011;39;20056;-60
2021/04/22 12:26:27;;;;;;;11.35;3.08;;;11.70;64.30;;;;;;3586102;40;20096;-61
2021/04/22 12:29:12;;;;;;;10.55;2.53;;;11.30;68.50;;;;;;3587951;40;20461;-61
2021/04/22 12:32:01;;;;;;;16.83;2.50;;;11.50;71.70;;;;;;3587665;40;20131;-61
2021/04/22 12:34:35;;;;;;;22.13;6.85;;;12.30;69.40;;;;;;3586872;39;20032;-61
2021/04/22 12:37:09;;;;;;;11.77;3.95;;;12.60;63.90;;;;;;3590258;39;20039;-61
2021/04/22 12:39:41;;;;;;;7.30;2.30;;;12.70;63.50;;;;;;3590099;40;20036;-61
2021/04/22 12:42:12;;;;;;;14.95;2.38;;;12.70;61.70;;;;;;3590125;39;20061;-61
2021/04/22 12:44:54;;;;;;;13.23;2.40;;;12.40;60.30;;;;;;3588672;39;20048;-61
2021/04/22 12:47:19;;;;;;;10.27;2.60;;;11.90;62.50;;;;;;3587721;40;20043;-62
2021/04/22 12:49:52;;;;;;;12.73;2.50;;;11.50;65.20;;;;;;3588313;39;20028;-61